sensor_id;sensor_type;location;lat;lon;timestamp;pressure;altitude;pressure_sealevel;temperature;humidity
14269;BME280;7218;51.480;7.006;2023-05-19T00:02:11;101454.09;;;9.52;81.94
14269;BME280;7218;51.480;7.006;2023-05-19T00:04:39;101457.59;;;9.59;82.61
14269;BME280;7218;51.480;7.006;2023-05-19T00:07:08;101453.25;;;9.55;83.00
14269;BME280;7218;51.480;7.006;2023-05-19T00:09:36;101454.97;;;9.45;82.20
14269;BME280;7218;51.480;7.006;2023-05-19T00:12:03;101449.75;;;9.47;82.56
14269;BME280;7218;51.480;7.006;2023-05-19T00:14:30;101457.53;;;9.39;82.46
14269;BME280;7218;51.480;7.006;2023-05-19T00:16:57;101452.31;;;9.39;82.87
14269;BME280;7218;51.480;7.006;2023-05-19T00:19:26;101454.03;;;9.34;83.47
14269;BME280;7218;51.480;7.006;2023-05-19T00:21:57;101461.03;;;9.46;82.78
14269;BME280;7218;51.480;7.006;2023-05-19T00:24:24;101452.28;;;9.29;83.68
14269;BME280;7218;51.480;7.006;2023-05-19T00:26:50;101455.69;;;9.22;83.47
14269;BME280;7218;51.480;7.006;2023-05-19T00:29:16;101460.03;;;9.15;84.04
14269;BME280;7218;51.480;7.006;2023-05-19T00:31:43;101458.28;;;9.16;84.62
14269;BME280;7218;51.480;7.006;2023-05-19T00:34:10;101455.69;;;9.14;84.10
14269;BME280;7218;51.480;7.006;2023-05-19T00:36:36;101456.50;;;9.05;84.62
14269;BME280;7218;51.480;7.006;2023-05-19T00:39:04;101453.94;;;9.13;84.59
14269;BME280;7218;51.480;7.006;2023-05-19T00:41:31;101453.88;;;9.02;84.69
14269;BME280;7218;51.480;7.006;2023-05-19T00:43:58;101455.59;;;8.96;86.00
14269;BME280;7218;51.480;7.006;2023-05-19T00:46:24;101454.66;;;8.86;86.78
14269;BME280;7218;51.480;7.006;2023-05-19T00:48:51;101455.50;;;8.84;86.42
14269;BME280;7218;51.480;7.006;2023-05-19T00:51:18;101452.00;;;8.79;86.95
14269;BME280;7218;51.480;7.006;2023-05-19T00:53:45;101448.50;;;8.75;87.41
14269;BME280;7218;51.480;7.006;2023-05-19T00:56:15;101452.03;;;8.85;87.42
14269;BME280;7218;51.480;7.006;2023-05-19T00:58:42;101447.59;;;8.70;88.95
14269;BME280;7218;51.480;7.006;2023-05-19T01:01:09;101451.03;;;8.68;88.55
14269;BME280;7218;51.480;7.006;2023-05-19T01:03:36;101458.03;;;8.75;87.31
14269;BME280;7218;51.480;7.006;2023-05-19T01:06:04;101454.47;;;8.62;88.00
14269;BME280;7218;51.480;7.006;2023-05-19T01:08:31;101450.13;;;8.62;88.10
14269;BME280;7218;51.480;7.006;2023-05-19T01:10:58;101450.94;;;8.54;88.89
14269;BME280;7218;51.480;7.006;2023-05-19T01:13:27;101451.84;;;8.56;89.06
14269;BME280;7218;51.480;7.006;2023-05-19T01:16:00;101449.34;;;8.70;88.63
14269;BME280;7218;51.480;7.006;2023-05-19T01:18:39;101451.03;;;8.64;89.40
14269;BME280;7218;51.480;7.006;2023-05-19T01:21:35;101443.25;;;8.69;88.68
14269;BME280;7218;51.480;7.006;2023-05-19T01:24:22;101451.97;;;8.76;88.73
14269;BME280;7218;51.480;7.006;2023-05-19T01:27:10;101447.53;;;8.62;89.82
14269;BME280;7218;51.480;7.006;2023-05-19T01:32:28;101438.81;;;8.51;90.48
14269;BME280;7218;51.480;7.006;2023-05-19T01:34:55;101437.91;;;8.46;90.81
14269;BME280;7218;51.480;7.006;2023-05-19T01:37:23;101439.50;;;8.32;91.21
14269;BME280;7218;51.480;7.006;2023-05-19T01:39:50;101443.84;;;8.32;91.13
14269;BME280;7218;51.480;7.006;2023-05-19T01:42:18;101434.31;;;8.32;91.38
14269;BME280;7218;51.480;7.006;2023-05-19T01:44:45;101453.22;;;8.22;91.43
14269;BME280;7218;51.480;7.006;2023-05-19T01:47:13;101447.16;;;8.20;91.99
14269;BME280;7218;51.480;7.006;2023-05-19T01:49:41;101451.44;;;8.15;92.39
14269;BME280;7218;51.480;7.006;2023-05-19T01:52:07;101458.34;;;8.10;93.19
14269;BME280;7218;51.480;7.006;2023-05-19T01:54:34;101456.59;;;8.12;92.84
14269;BME280;7218;51.480;7.006;2023-05-19T01:57:06;101457.59;;;8.25;92.63
14269;BME280;7218;51.480;7.006;2023-05-19T01:59:41;101452.38;;;8.23;92.01
14269;BME280;7218;51.480;7.006;2023-05-19T02:02:19;101454.00;;;8.12;92.42
14269;BME280;7218;51.480;7.006;2023-05-19T02:04:56;101457.47;;;8.09;92.50
14269;BME280;7218;51.480;7.006;2023-05-19T02:07:29;101459.09;;;8.00;93.36
14269;BME280;7218;51.480;7.006;2023-05-19T02:10:00;101459.13;;;8.01;93.68
14269;BME280;7218;51.480;7.006;2023-05-19T02:12:31;101465.13;;;7.97;94.01
14269;BME280;7218;51.480;7.006;2023-05-19T02:15:04;101465.00;;;7.85;94.22
14269;BME280;7218;51.480;7.006;2023-05-19T02:17:32;101457.13;;;7.77;95.09
14269;BME280;7218;51.480;7.006;2023-05-19T02:20:01;101463.16;;;7.72;96.66
14269;BME280;7218;51.480;7.006;2023-05-19T02:22:28;101459.59;;;7.65;96.43
14269;BME280;7218;51.480;7.006;2023-05-19T02:24:55;101462.94;;;7.55;96.22
14269;BME280;7218;51.480;7.006;2023-05-19T02:27:21;101460.28;;;7.52;97.96
14269;BME280;7218;51.480;7.006;2023-05-19T02:29:48;101462.84;;;7.49;98.38
14269;BME280;7218;51.480;7.006;2023-05-19T02:32:14;101457.66;;;7.49;98.26
14269;BME280;7218;51.480;7.006;2023-05-19T02:34:41;101461.97;;;7.47;98.39
14269;BME280;7218;51.480;7.006;2023-05-19T02:37:11;101455.06;;;7.46;99.04
14269;BME280;7218;51.480;7.006;2023-05-19T02:39:37;101454.06;;;7.38;99.29
14269;BME280;7218;51.480;7.006;2023-05-19T02:42:04;101453.28;;;7.42;99.24
14269;BME280;7218;51.480;7.006;2023-05-19T02:44:31;101450.69;;;7.44;99.21
14269;BME280;7218;51.480;7.006;2023-05-19T02:46:57;101443.69;;;7.37;99.50
14269;BME280;7218;51.480;7.006;2023-05-19T02:49:24;101441.03;;;7.32;100.00
14269;BME280;7218;51.480;7.006;2023-05-19T02:51:50;101430.59;;;7.29;100.00
14269;BME280;7218;51.480;7.006;2023-05-19T02:54:18;101435.91;;;7.37;100.00
14269;BME280;7218;51.480;7.006;2023-05-19T02:56:44;101434.88;;;7.24;100.00
14269;BME280;7218;51.480;7.006;2023-05-19T02:59:11;101434.84;;;7.21;99.29
14269;BME280;7218;51.480;7.006;2023-05-19T03:01:37;101433.91;;;7.16;100.00
14269;BME280;7218;51.480;7.006;2023-05-19T03:04:04;101429.53;;;7.13;100.00
14269;BME280;7218;51.480;7.006;2023-05-19T03:06:31;101430.47;;;7.17;99.76
14269;BME280;7218;51.480;7.006;2023-05-19T03:08:57;101428.81;;;7.22;99.52
14269;BME280;7218;51.480;7.006;2023-05-19T03:11:25;101439.34;;;7.35;99.01
14269;BME280;7218;51.480;7.006;2023-05-19T03:13:51;101448.81;;;7.32;98.47
14269;BME280;7218;51.480;7.006;2023-05-19T03:16:18;101439.25;;;7.29;97.90
14269;BME280;7218;51.480;7.006;2023-05-19T03:18:44;101443.44;;;7.17;98.12
14269;BME280;7218;51.480;7.006;2023-05-19T03:21:11;101451.94;;;7.07;99.26
14269;BME280;7218;51.480;7.006;2023-05-19T03:23:37;101446.78;;;7.10;99.49
14269;BME280;7218;51.480;7.006;2023-05-19T03:26:04;101451.03;;;7.05;100.00
14269;BME280;7218;51.480;7.006;2023-05-19T03:28:32;101446.88;;;7.17;99.41
14269;BME280;7218;51.480;7.006;2023-05-19T03:30:58;101445.03;;;7.09;99.79
14269;BME280;7218;51.480;7.006;2023-05-19T03:33:25;101449.28;;;7.04;99.93
14269;BME280;7218;51.480;7.006;2023-05-19T03:35:52;101449.31;;;7.05;100.00
14269;BME280;7218;51.480;7.006;2023-05-19T03:38:18;101445.00;;;7.06;99.78
14269;BME280;7218;51.480;7.006;2023-05-19T03:40:44;101445.88;;;7.06;99.93
14269;BME280;7218;51.480;7.006;2023-05-19T03:43:11;101445.03;;;7.09;100.00
14269;BME280;7218;51.480;7.006;2023-05-19T03:45:39;101443.53;;;7.24;100.00
14269;BME280;7218;51.480;7.006;2023-05-19T03:48:05;101448.53;;;7.11;100.00
14269;BME280;7218;51.480;7.006;2023-05-19T03:50:32;101441.63;;;7.11;100.00
14269;BME280;7218;51.480;7.006;2023-05-19T03:52:58;101453.75;;;7.14;100.00
14269;BME280;7218;51.480;7.006;2023-05-19T03:55:25;101447.63;;;7.07;100.00
14269;BME280;7218;51.480;7.006;2023-05-19T03:57:54;101444.09;;;7.04;100.00
14269;BME280;7218;51.480;7.006;2023-05-19T04:00:21;101450.19;;;7.06;100.00
14269;BME280;7218;51.480;7.006;2023-05-19T04:02:49;101453.84;;;7.20;100.00
14269;BME280;7218;51.480;7.006;2023-05-19T04:05:16;101450.28;;;7.13;100.00
14269;BME280;7218;51.480;7.006;2023-05-19T04:07:42;101451.09;;;7.09;100.00
14269;BME280;7218;51.480;7.006;2023-05-19T04:10:11;101448.59;;;7.15;100.00
14269;BME280;7218;51.480;7.006;2023-05-19T04:12:37;101453.75;;;7.12;100.00
14269;BME280;7218;51.480;7.006;2023-05-19T04:15:05;101451.31;;;7.24;100.00
14269;BME280;7218;51.480;7.006;2023-05-19T04:17:31;101454.75;;;7.23;99.60
14269;BME280;7218;51.480;7.006;2023-05-19T04:19:59;101452.28;;;7.34;99.93
14269;BME280;7218;51.480;7.006;2023-05-19T04:22:26;101459.03;;;7.20;99.99
14269;BME280;7218;51.480;7.006;2023-05-19T04:24:52;101456.53;;;7.27;99.78
14269;BME280;7218;51.480;7.006;2023-05-19T04:27:19;101459.19;;;7.30;99.99
14269;BME280;7218;51.480;7.006;2023-05-19T04:29:46;101455.78;;;7.36;99.23
14269;BME280;7218;51.480;7.006;2023-05-19T04:32:13;101454.19;;;7.46;99.06
14269;BME280;7218;51.480;7.006;2023-05-19T04:34:42;101457.69;;;7.52;99.22
14269;BME280;7218;51.480;7.006;2023-05-19T04:37:11;101452.56;;;7.58;97.85
14269;BME280;7218;51.480;7.006;2023-05-19T04:39:38;101459.34;;;7.44;98.80
14269;BME280;7218;51.480;7.006;2023-05-19T04:42:07;101456.78;;;7.46;99.29
14269;BME280;7218;51.480;7.006;2023-05-19T04:44:34;101451.66;;;7.52;98.71
14269;BME280;7218;51.480;7.006;2023-05-19T04:47:02;101460.34;;;7.55;98.38
14269;BME280;7218;51.480;7.006;2023-05-19T04:49:30;101456.06;;;7.59;98.45
14269;BME280;7218;51.480;7.006;2023-05-19T04:51:56;101465.56;;;7.57;99.36
14269;BME280;7218;51.480;7.006;2023-05-19T04:54:24;101462.22;;;7.68;99.22
14269;BME280;7218;51.480;7.006;2023-05-19T04:56:51;101467.34;;;7.64;98.89
14269;BME280;7218;51.480;7.006;2023-05-19T04:59:17;101465.78;;;7.76;98.40
14269;BME280;7218;51.480;7.006;2023-05-19T05:01:43;101464.09;;;7.83;98.47
14269;BME280;7218;51.480;7.006;2023-05-19T05:04:10;101469.31;;;7.85;97.61
14269;BME280;7218;51.480;7.006;2023-05-19T05:06:36;101466.72;;;7.82;96.97
14269;BME280;7218;51.480;7.006;2023-05-19T05:09:04;101462.38;;;7.84;97.81
14269;BME280;7218;51.480;7.006;2023-05-19T05:11:33;101465.25;;;8.06;97.57
14269;BME280;7218;51.480;7.006;2023-05-19T05:14:00;101466.03;;;8.02;97.15
14269;BME280;7218;51.480;7.006;2023-05-19T05:16:27;101466.22;;;8.19;96.61
14269;BME280;7218;51.480;7.006;2023-05-19T05:18:54;101462.78;;;8.21;95.88
14269;BME280;7218;51.480;7.006;2023-05-19T05:21:22;101464.66;;;8.38;94.48
14269;BME280;7218;51.480;7.006;2023-05-19T05:23:49;101465.59;;;8.41;94.65
14269;BME280;7218;51.480;7.006;2023-05-19T05:26:17;101463.88;;;8.48;93.81
14269;BME280;7218;51.480;7.006;2023-05-19T05:28:45;101464.03;;;8.61;93.00
14269;BME280;7218;51.480;7.006;2023-05-19T05:31:12;101462.31;;;8.68;93.00
14269;BME280;7218;51.480;7.006;2023-05-19T05:33:38;101463.22;;;8.72;91.79
14269;BME280;7218;51.480;7.006;2023-05-19T05:36:06;101453.78;;;8.86;91.59
14269;BME280;7218;51.480;7.006;2023-05-19T05:38:32;101462.50;;;8.94;91.31
14269;BME280;7218;51.480;7.006;2023-05-19T05:40:59;101455.53;;;8.90;91.01
14269;BME280;7218;51.480;7.006;2023-05-19T05:43:26;101453.88;;;9.07;89.22
14269;BME280;7218;51.480;7.006;2023-05-19T05:45:55;101462.66;;;9.27;89.28
14269;BME280;7218;51.480;7.006;2023-05-19T05:48:22;101463.56;;;9.26;88.83
14269;BME280;7218;51.480;7.006;2023-05-19T05:50:49;101460.09;;;9.32;87.33
14269;BME280;7218;51.480;7.006;2023-05-19T05:53:17;101454.94;;;9.44;87.18
14269;BME280;7218;51.480;7.006;2023-05-19T05:55:45;101457.56;;;9.47;86.84
14269;BME280;7218;51.480;7.006;2023-05-19T05:58:11;101448.94;;;9.56;87.30
14269;BME280;7218;51.480;7.006;2023-05-19T06:00:39;101455.03;;;9.61;86.60
14269;BME280;7218;51.480;7.006;2023-05-19T06:03:09;101451.59;;;9.75;85.69
14269;BME280;7218;51.480;7.006;2023-05-19T06:05:35;101436.81;;;9.82;85.81
14269;BME280;7218;51.480;7.006;2023-05-19T06:08:02;101432.50;;;9.91;85.24
14269;BME280;7218;51.480;7.006;2023-05-19T06:10:29;101435.13;;;9.93;84.36
14269;BME280;7218;51.480;7.006;2023-05-19T06:12:55;101431.66;;;10.08;83.25
14269;BME280;7218;51.480;7.006;2023-05-19T06:15:22;101428.19;;;10.07;82.90
14269;BME280;7218;51.480;7.006;2023-05-19T06:17:48;101431.72;;;10.20;82.11
14269;BME280;7218;51.480;7.006;2023-05-19T06:20:16;101424.78;;;10.29;80.97
14269;BME280;7218;51.480;7.006;2023-05-19T06:22:44;101423.00;;;10.31;80.80
14269;BME280;7218;51.480;7.006;2023-05-19T06:25:10;101422.13;;;10.42;80.55
14269;BME280;7218;51.480;7.006;2023-05-19T06:27:37;101424.75;;;10.46;79.98
14269;BME280;7218;51.480;7.006;2023-05-19T06:30:05;101427.38;;;10.60;80.84
14269;BME280;7218;51.480;7.006;2023-05-19T06:32:32;101429.09;;;10.62;80.94
14269;BME280;7218;51.480;7.006;2023-05-19T06:34:59;101428.19;;;10.71;80.93
14269;BME280;7218;51.480;7.006;2023-05-19T06:37:27;101424.69;;;10.93;79.27
14269;BME280;7218;51.480;7.006;2023-05-19T06:39:53;101433.38;;;10.92;78.52
14269;BME280;7218;51.480;7.006;2023-05-19T06:42:20;101429.03;;;10.91;77.61
14269;BME280;7218;51.480;7.006;2023-05-19T06:44:48;101429.00;;;11.05;77.19
14269;BME280;7218;51.480;7.006;2023-05-19T06:47:14;101423.75;;;11.14;76.20
14269;BME280;7218;51.480;7.006;2023-05-19T06:49:41;101424.63;;;11.20;76.87
14269;BME280;7218;51.480;7.006;2023-05-19T06:52:07;101423.66;;;11.37;76.67
14269;BME280;7218;51.480;7.006;2023-05-19T06:54:35;101421.81;;;11.57;75.37
14269;BME280;7218;51.480;7.006;2023-05-19T06:57:02;101429.66;;;11.60;74.83
14269;BME280;7218;51.480;7.006;2023-05-19T06:59:29;101422.59;;;11.71;74.01
14269;BME280;7218;51.480;7.006;2023-05-19T07:01:55;101426.94;;;11.83;72.54
14269;BME280;7218;51.480;7.006;2023-05-19T07:04:22;101425.09;;;12.00;72.62
14269;BME280;7218;51.480;7.006;2023-05-19T07:06:48;101425.03;;;12.06;72.29
14269;BME280;7218;51.480;7.006;2023-05-19T07:09:15;101415.38;;;12.19;72.03
14269;BME280;7218;51.480;7.006;2023-05-19T07:11:43;101417.81;;;12.40;71.00
14269;BME280;7218;51.480;7.006;2023-05-19T07:14:09;101424.75;;;12.42;69.85
14269;BME280;7218;51.480;7.006;2023-05-19T07:16:36;101421.22;;;12.48;70.18
14269;BME280;7218;51.480;7.006;2023-05-19T07:19:02;101421.13;;;12.60;69.58
14269;BME280;7218;51.480;7.006;2023-05-19T07:21:28;101422.03;;;12.53;67.47
14269;BME280;7218;51.480;7.006;2023-05-19T07:23:55;101425.34;;;12.70;68.01
14269;BME280;7218;51.480;7.006;2023-05-19T07:26:21;101418.25;;;12.83;67.73
14269;BME280;7218;51.480;7.006;2023-05-19T07:28:49;101415.47;;;12.97;66.53
14269;BME280;7218;51.480;7.006;2023-05-19T07:31:16;101411.13;;;12.97;66.21
14269;BME280;7218;51.480;7.006;2023-05-19T07:33:42;101416.34;;;12.99;66.13
14269;BME280;7218;51.480;7.006;2023-05-19T07:36:09;101413.56;;;13.11;65.04
14269;BME280;7218;51.480;7.006;2023-05-19T07:38:35;101416.16;;;13.17;64.47
14269;BME280;7218;51.480;7.006;2023-05-19T07:41:02;101416.91;;;13.28;65.66
14269;BME280;7218;51.480;7.006;2023-05-19T07:43:28;101420.28;;;13.38;64.88
14269;BME280;7218;51.480;7.006;2023-05-19T07:45:57;101406.91;;;13.59;64.59
14269;BME280;7218;51.480;7.006;2023-05-19T07:48:23;101412.09;;;13.60;63.13
14269;BME280;7218;51.480;7.006;2023-05-19T07:50:50;101401.44;;;13.74;62.90
14269;BME280;7218;51.480;7.006;2023-05-19T07:53:17;101404.81;;;13.80;63.14
14269;BME280;7218;51.480;7.006;2023-05-19T07:55:44;101398.63;;;13.86;61.39
14269;BME280;7218;51.480;7.006;2023-05-19T07:58:10;101392.34;;;13.98;61.10
14269;BME280;7218;51.480;7.006;2023-05-19T08:00:36;101394.81;;;14.08;59.16
14269;BME280;7218;51.480;7.006;2023-05-19T08:03:04;101393.69;;;14.23;59.98
14269;BME280;7218;51.480;7.006;2023-05-19T08:05:33;101397.09;;;14.28;59.13
14269;BME280;7218;51.480;7.006;2023-05-19T08:07:59;101391.78;;;14.31;59.06
14269;BME280;7218;51.480;7.006;2023-05-19T08:10:27;101397.91;;;14.30;57.58
14269;BME280;7218;51.480;7.006;2023-05-19T08:12:53;101395.22;;;14.35;57.44
14269;BME280;7218;51.480;7.006;2023-05-19T08:15:20;101389.25;;;14.27;54.00
14269;BME280;7218;51.480;7.006;2023-05-19T08:17:46;101396.91;;;14.40;56.09
14269;BME280;7218;51.480;7.006;2023-05-19T08:20:14;101382.53;;;14.61;55.20
14269;BME280;7218;51.480;7.006;2023-05-19T08:22:41;101385.84;;;14.71;55.71
14269;BME280;7218;51.480;7.006;2023-05-19T08:25:08;101388.94;;;14.92;54.40
14269;BME280;7218;51.480;7.006;2023-05-19T08:27:35;101379.97;;;15.04;53.34
14269;BME280;7218;51.480;7.006;2023-05-19T08:30:02;101372.88;;;15.09;52.46
14269;BME280;7218;51.480;7.006;2023-05-19T08:32:28;101376.22;;;15.16;52.71
14269;BME280;7218;51.480;7.006;2023-05-19T08:34:55;101369.88;;;15.26;51.42
14269;BME280;7218;51.480;7.006;2023-05-19T08:37:23;101361.75;;;15.36;51.14
14269;BME280;7218;51.480;7.006;2023-05-19T08:39:49;101360.78;;;15.40;51.15
14269;BME280;7218;51.480;7.006;2023-05-19T08:42:16;101364.84;;;15.57;50.51
14269;BME280;7218;51.480;7.006;2023-05-19T08:44:42;101364.19;;;15.45;50.68
14269;BME280;7218;51.480;7.006;2023-05-19T08:47:09;101363.72;;;15.68;49.00
14269;BME280;7218;51.480;7.006;2023-05-19T08:49:42;101359.53;;;15.97;47.93
14269;BME280;7218;51.480;7.006;2023-05-19T08:52:16;101352.94;;;16.14;48.09
14269;BME280;7218;51.480;7.006;2023-05-19T08:54:52;101356.09;;;16.28;48.28
14269;BME280;7218;51.480;7.006;2023-05-19T08:57:20;101355.38;;;16.22;47.54
14269;BME280;7218;51.480;7.006;2023-05-19T08:59:49;101349.88;;;16.31;45.50
14269;BME280;7218;51.480;7.006;2023-05-19T09:02:17;101343.75;;;16.30;45.53
14269;BME280;7218;51.480;7.006;2023-05-19T09:04:44;101341.94;;;16.32;43.63
14269;BME280;7218;51.480;7.006;2023-05-19T09:07:12;101344.75;;;16.59;45.77
14269;BME280;7218;51.480;7.006;2023-05-19T09:09:39;101345.16;;;16.77;44.66
14269;BME280;7218;51.480;7.006;2023-05-19T09:12:09;101338.22;;;17.04;45.06
14269;BME280;7218;51.480;7.006;2023-05-19T09:14:36;101349.69;;;17.03;43.90
14269;BME280;7218;51.480;7.006;2023-05-19T09:17:02;101336.31;;;17.09;42.90
14269;BME280;7218;51.480;7.006;2023-05-19T09:19:29;101340.13;;;17.29;42.84
14269;BME280;7218;51.480;7.006;2023-05-19T09:22:00;101331.13;;;17.36;41.39
14269;BME280;7218;51.480;7.006;2023-05-19T09:24:27;101319.09;;;17.55;41.33
14269;BME280;7218;51.480;7.006;2023-05-19T09:26:55;101327.09;;;17.81;41.00
14269;BME280;7218;51.480;7.006;2023-05-19T09:29:23;101316.53;;;18.08;40.39
14269;BME280;7218;51.480;7.006;2023-05-19T09:31:51;101334.19;;;18.32;40.39
14269;BME280;7218;51.480;7.006;2023-05-19T09:34:18;101333.72;;;18.44;37.79
14269;BME280;7218;51.480;7.006;2023-05-19T09:36:46;101329.88;;;18.54;37.90
14269;BME280;7218;51.480;7.006;2023-05-19T09:39:14;101325.59;;;17.99;38.48
14269;BME280;7218;51.480;7.006;2023-05-19T09:41:41;101331.88;;;17.11;40.80
14269;BME280;7218;51.480;7.006;2023-05-19T09:44:11;101316.81;;;17.98;40.09
14269;BME280;7218;51.480;7.006;2023-05-19T09:46:46;101317.69;;;18.75;39.92
14269;BME280;7218;51.480;7.006;2023-05-19T09:49:12;101320.63;;;18.90;37.99
14269;BME280;7218;51.480;7.006;2023-05-19T09:51:40;101317.78;;;18.97;38.30
14269;BME280;7218;51.480;7.006;2023-05-19T09:54:06;101309.53;;;19.04;36.81
14269;BME280;7218;51.480;7.006;2023-05-19T09:56:34;101300.47;;;19.33;36.59
14269;BME280;7218;51.480;7.006;2023-05-19T09:59:02;101301.06;;;19.85;36.38
14269;BME280;7218;51.480;7.006;2023-05-19T10:01:29;101301.50;;;19.96;36.37
14269;BME280;7218;51.480;7.006;2023-05-19T10:03:59;101302.53;;;20.34;35.80
14269;BME280;7218;51.480;7.006;2023-05-19T10:06:25;101300.91;;;20.70;35.98
14269;BME280;7218;51.480;7.006;2023-05-19T10:08:53;101302.81;;;21.05;35.43
14269;BME280;7218;51.480;7.006;2023-05-19T10:11:21;101281.34;;;21.30;34.80
14269;BME280;7218;51.480;7.006;2023-05-19T10:13:49;101302.13;;;21.21;33.58
14269;BME280;7218;51.480;7.006;2023-05-19T10:16:17;101285.72;;;21.31;32.89
14269;BME280;7218;51.480;7.006;2023-05-19T10:18:43;101290.34;;;21.45;33.47
14269;BME280;7218;51.480;7.006;2023-05-19T10:21:12;101288.59;;;21.63;32.51
14269;BME280;7218;51.480;7.006;2023-05-19T10:23:39;101286.25;;;21.57;32.85
14269;BME280;7218;51.480;7.006;2023-05-19T10:26:07;101290.25;;;21.82;33.54
14269;BME280;7218;51.480;7.006;2023-05-19T10:28:36;101292.03;;;21.65;31.39
14269;BME280;7218;51.480;7.006;2023-05-19T10:31:05;101285.69;;;21.86;31.82
14269;BME280;7218;51.480;7.006;2023-05-19T10:33:40;101283.59;;;21.38;32.36
14269;BME280;7218;51.480;7.006;2023-05-19T10:36:20;101279.63;;;21.29;31.96
14269;BME280;7218;51.480;7.006;2023-05-19T10:38:54;101276.47;;;21.21;31.25
14269;BME280;7218;51.480;7.006;2023-05-19T10:41:26;101275.72;;;21.72;31.81
14269;BME280;7218;51.480;7.006;2023-05-19T10:44:00;101267.97;;;21.68;31.56
14269;BME280;7218;51.480;7.006;2023-05-19T10:46:30;101270.47;;;21.54;32.35
14269;BME280;7218;51.480;7.006;2023-05-19T10:48:57;101269.53;;;22.08;31.31
14269;BME280;7218;51.480;7.006;2023-05-19T10:51:29;101275.09;;;22.20;30.48
14269;BME280;7218;51.480;7.006;2023-05-19T10:53:56;101278.84;;;22.16;31.65
14269;BME280;7218;51.480;7.006;2023-05-19T10:56:27;101279.56;;;22.53;31.15
14269;BME280;7218;51.480;7.006;2023-05-19T10:58:58;101271.63;;;22.18;30.33
14269;BME280;7218;51.480;7.006;2023-05-19T11:01:30;101269.44;;;22.09;29.88
14269;BME280;7218;51.480;7.006;2023-05-19T11:04:03;101268.91;;;22.70;30.52
14269;BME280;7218;51.480;7.006;2023-05-19T11:06:32;101273.22;;;22.05;30.48
14269;BME280;7218;51.480;7.006;2023-05-19T11:09:12;101267.50;;;22.30;30.44
14269;BME280;7218;51.480;7.006;2023-05-19T11:11:44;101256.50;;;23.02;30.63
14269;BME280;7218;51.480;7.006;2023-05-19T11:14:11;101251.03;;;23.52;30.11
14269;BME280;7218;51.480;7.006;2023-05-19T11:16:39;101252.25;;;24.06;29.63
14269;BME280;7218;51.480;7.006;2023-05-19T11:19:07;101260.63;;;23.70;28.77
14269;BME280;7218;51.480;7.006;2023-05-19T11:21:41;101262.91;;;24.36;30.24
14269;BME280;7218;51.480;7.006;2023-05-19T11:24:34;101247.88;;;24.92;28.76
14269;BME280;7218;51.480;7.006;2023-05-19T11:27:23;101246.59;;;25.11;28.08
14269;BME280;7218;51.480;7.006;2023-05-19T11:29:50;101254.72;;;24.67;28.12
14269;BME280;7218;51.480;7.006;2023-05-19T11:32:18;101261.31;;;23.58;27.39
14269;BME280;7218;51.480;7.006;2023-05-19T11:34:46;101265.06;;;21.91;30.77
14269;BME280;7218;51.480;7.006;2023-05-19T11:37:14;101257.97;;;22.09;29.35
14269;BME280;7218;51.480;7.006;2023-05-19T11:39:41;101248.53;;;22.86;28.76
14269;BME280;7218;51.480;7.006;2023-05-19T11:42:08;101244.66;;;23.70;27.89
14269;BME280;7218;51.480;7.006;2023-05-19T11:44:34;101245.38;;;24.46;27.51
14269;BME280;7218;51.480;7.006;2023-05-19T11:47:02;101242.72;;;24.74;27.25
14269;BME280;7218;51.480;7.006;2023-05-19T11:49:29;101235.88;;;25.52;27.01
14269;BME280;7218;51.480;7.006;2023-05-19T11:51:56;101248.13;;;26.21;27.05
14269;BME280;7218;51.480;7.006;2023-05-19T11:54:28;101231.91;;;26.62;26.21
14269;BME280;7218;51.480;7.006;2023-05-19T11:56:55;101234.28;;;26.29;25.54
14269;BME280;7218;51.480;7.006;2023-05-19T11:59:28;101233.03;;;26.96;26.60
14269;BME280;7218;51.480;7.006;2023-05-19T12:01:55;101232.69;;;27.50;25.98
14269;BME280;7218;51.480;7.006;2023-05-19T12:04:21;101230.66;;;27.64;24.82
14269;BME280;7218;51.480;7.006;2023-05-19T12:06:48;101238.91;;;27.37;25.29
14269;BME280;7218;51.480;7.006;2023-05-19T12:09:14;101237.19;;;28.19;24.71
14269;BME280;7218;51.480;7.006;2023-05-19T12:11:42;101234.31;;;28.78;24.29
14269;BME280;7218;51.480;7.006;2023-05-19T12:14:09;101229.78;;;28.56;23.56
14269;BME280;7218;51.480;7.006;2023-05-19T12:16:37;101236.81;;;28.35;23.85
14269;BME280;7218;51.480;7.006;2023-05-19T12:19:04;101230.22;;;28.16;23.80
14269;BME280;7218;51.480;7.006;2023-05-19T12:21:30;101228.69;;;28.01;23.22
14269;BME280;7218;51.480;7.006;2023-05-19T12:23:58;101220.28;;;28.06;24.00
14269;BME280;7218;51.480;7.006;2023-05-19T12:26:25;101220.69;;;27.06;25.38
14269;BME280;7218;51.480;7.006;2023-05-19T12:28:53;101215.53;;;27.39;25.15
14269;BME280;7218;51.480;7.006;2023-05-19T12:31:20;101210.69;;;27.45;24.39
14269;BME280;7218;51.480;7.006;2023-05-19T12:33:47;101208.19;;;28.46;24.31
14269;BME280;7218;51.480;7.006;2023-05-19T12:36:16;101208.28;;;28.11;24.73
14269;BME280;7218;51.480;7.006;2023-05-19T12:38:42;101203.28;;;27.24;24.57
14269;BME280;7218;51.480;7.006;2023-05-19T12:41:09;101209.44;;;26.65;24.67
14269;BME280;7218;51.480;7.006;2023-05-19T12:43:36;101206.09;;;28.16;23.57
14269;BME280;7218;51.480;7.006;2023-05-19T12:46:10;101200.66;;;29.28;22.85
14269;BME280;7218;51.480;7.006;2023-05-19T12:48:39;101202.09;;;29.96;23.38
14269;BME280;7218;51.480;7.006;2023-05-19T12:51:06;101200.88;;;30.30;22.25
14269;BME280;7218;51.480;7.006;2023-05-19T12:53:32;101198.03;;;30.92;23.46
14269;BME280;7218;51.480;7.006;2023-05-19T12:55:59;101197.75;;;30.55;20.65
14269;BME280;7218;51.480;7.006;2023-05-19T12:58:25;101197.22;;;30.61;21.79
14269;BME280;7218;51.480;7.006;2023-05-19T13:00:57;101195.97;;;31.44;22.57
14269;BME280;7218;51.480;7.006;2023-05-19T13:03:26;101185.34;;;31.42;21.01
14269;BME280;7218;51.480;7.006;2023-05-19T13:05:52;101191.16;;;31.86;21.54
14269;BME280;7218;51.480;7.006;2023-05-19T13:08:20;101203.75;;;32.14;20.63
14269;BME280;7218;51.480;7.006;2023-05-19T13:10:48;101187.50;;;32.33;20.90
14269;BME280;7218;51.480;7.006;2023-05-19T13:13:15;101176.66;;;31.48;20.40